Time;durP1;ratioP1;P1;durP2;ratioP2;P2;SDS_P1;SDS_P2;PMS_P1;PMS_P2;Temp;Humidity;BMP_temperature;BMP_pressure;BME280_temperature;BME280_humidity;BME280_pressure;Samples;Min_cycle;Max_cycle;Signal;HPM_P1;HPM_P2
2023/09/09 00:03:12;;;;;;;;;;;;;;;17.92;89.02;100949.11;674525;1263;126012;-78
2023/09/09 00:18:16;;;;;;;;;;;;;;;17.74;89.31;100950.09;676457;1263;126112;-78
2023/09/09 00:33:20;;;;;;;;;;;;;;;17.50;89.95;100955.88;671398;1265;125337;-79
2023/09/09 00:48:23;;;;;;;;;;;;;;;17.32;90.28;100955.60;672860;1264;126412;-79
2023/09/09 01:03:26;;;;;;;;;;;;;;;17.18;90.33;100955.53;672793;1266;126908;-79
2023/09/09 01:18:31;;;;;;;;;;;;;;;16.98;91.34;100957.59;672979;1265;127001;-79
2023/09/09 01:33:34;;;;;;;;;;;;;;;16.97;91.44;100966.05;672963;1263;126886;-80
2023/09/09 01:48:38;;;;;;;;;;;;;;;16.93;91.37;100966.64;672642;1264;126754;-79
2023/09/09 02:03:42;;;;;;;;;;;;;;;16.88;91.31;100959.02;672376;1264;126571;-79
2023/09/09 02:18:46;;;;;;;;;;;;;;;16.71;92.11;100958.10;672915;1276;126271;-79
2023/09/09 02:33:49;;;;;;;;;;;;;;;16.61;92.77;100962.61;672550;1264;126810;-79
2023/09/09 02:48:53;;;;;;;;;;;;;;;16.57;91.91;100961.93;672440;1264;126569;-79
2023/09/09 03:03:56;;;;;;;;;;;;;;;16.43;91.89;100959.02;671885;1264;125326;-79
2023/09/09 03:19:00;;;;;;;;;;;;;;;16.37;91.93;100962.80;672154;1272;125670;-79
2023/09/09 03:34:04;;;;;;;;;;;;;;;16.19;92.60;100972.38;671577;1261;125822;-79
2023/09/09 03:49:11;;;;;;;;;;;;;;;16.10;92.96;100970.81;672901;1273;127000;-79
2023/09/09 04:04:14;;;;;;;;;;;;;;;16.04;92.89;100973.92;672112;1259;125946;-77
2023/09/09 04:19:18;;;;;;;;;;;;;;;16.03;93.73;100979.98;670140;1265;125624;-78
2023/09/09 04:34:21;;;;;;;;;;;;;;;16.23;93.01;100978.83;669462;1262;125627;-78
2023/09/09 04:49:25;;;;;;;;;;;;;;;16.36;93.72;100981.71;672920;1263;126611;-78
2023/09/09 05:04:28;;;;;;;;;;;;;;;16.69;94.01;100980.38;673049;1263;125777;-79
2023/09/09 05:19:32;;;;;;;;;;;;;;;17.22;94.18;100969.27;674187;1261;127106;-79
2023/09/09 05:34:36;;;;;;;;;;;;;;;17.78;94.08;100968.43;676139;1262;125428;-80
2023/09/09 05:49:40;;;;;;;;;;;;;;;18.40;93.05;100965.06;672797;1262;125768;-79
2023/09/09 06:04:45;;;;;;;;;;;;;;;19.01;92.41;100959.50;673048;1261;126060;-80
2023/09/09 06:19:50;;;;;;;;;;;;;;;20.10;91.10;100961.11;672923;1262;125347;-79
2023/09/09 06:34:53;;;;;;;;;;;;;;;21.33;89.10;100955.40;672593;1263;125820;-79
2023/09/09 06:49:57;;;;;;;;;;;;;;;23.13;87.43;100963.63;673041;1264;126757;-78
2023/09/09 07:05:00;;;;;;;;;;;;;;;24.28;82.31;100952.66;669545;1264;126119;-77
2023/09/09 07:20:04;;;;;;;;;;;;;;;25.10;81.69;100958.88;668870;1264;125736;-78
2023/09/09 07:35:07;;;;;;;;;;;;;;;26.25;79.45;100975.13;668761;1259;125024;-78
2023/09/09 07:50:11;;;;;;;;;;;;;;;27.13;77.24;100985.49;668064;1263;125050;-77
2023/09/09 08:05:14;;;;;;;;;;;;;;;28.09;74.85;100995.90;671865;1264;125762;-77
2023/09/09 08:20:18;;;;;;;;;;;;;;;29.38;72.43;100999.21;671142;1265;126574;-78
2023/09/09 08:35:22;;;;;;;;;;;;;;;29.81;70.01;101008.98;672706;1264;124745;-78
2023/09/09 08:50:26;;;;;;;;;;;;;;;29.76;69.89;101006.27;669899;1263;125059;-78
2023/09/09 09:05:31;;;;;;;;;;;;;;;31.10;66.43;101003.18;672927;1266;125922;-79
2023/09/09 09:20:34;;;;;;;;;;;;;;;31.87;62.02;101001.66;672680;1274;124913;-78
2023/09/09 09:35:38;;;;;;;;;;;;;;;32.44;55.53;100998.67;671171;1264;125632;-79
2023/09/09 09:59:21;;;;;;;;;;;;;;;31.55;53.07;100979.16;654431;1295;545368;-78
2023/09/09 10:14:26;;;;;;;;;;;;;;;31.79;52.90;100976.14;668309;1275;124458;-79
2023/09/09 10:29:30;;;;;;;;;;;;;;;32.77;51.68;100964.11;671982;1265;126431;-79
2023/09/09 10:44:34;;;;;;;;;;;;;;;32.31;53.04;100953.14;674879;1266;124031;-78
2023/09/09 10:59:37;;;;;;;;;;;;;;;32.62;50.25;100953.38;673016;1265;123962;-78
2023/09/09 11:14:43;;;;;;;;;;;;;;;32.66;51.27;100949.29;668237;1268;125337;-77
2023/09/09 11:29:51;;;;;;;;;;;;;;;32.25;50.72;100950.84;667691;1265;125701;-76
2023/09/09 11:44:54;;;;;;;;;;;;;;;32.05;51.59;100936.27;667488;1265;125603;-75
2023/09/09 12:00:00;;;;;;;;;;;;;;;32.10;51.13;100932.04;667263;1265;125786;-76
2023/09/09 12:15:26;;;;;;;;;;;;;;;31.58;50.69;100924.06;667689;1267;125261;-76
2023/09/09 14:24:51;;;;;;;;;;;;;;;31.28;49.08;100847.33;649147;1303;544518;-76
2023/09/09 14:39:54;;;;;;;;;;;;;;;30.97;49.85;100836.28;662635;1275;126391;-77
2023/09/09 14:54:57;;;;;;;;;;;;;;;30.59;49.61;100841.03;662996;1275;124710;-74
2023/09/09 15:10:01;;;;;;;;;;;;;;;30.09;51.22;100823.33;663333;1275;124032;-75
2023/09/09 15:25:06;;;;;;;;;;;;;;;29.80;51.98;100816.27;663448;1274;124166;-76
2023/09/09 15:40:10;;;;;;;;;;;;;;;29.17;54.79;100810.43;663834;1275;123850;-76
2023/09/09 15:55:13;;;;;;;;;;;;;;;28.58;56.02;100810.05;664109;1272;125693;-76
2023/09/09 16:10:16;;;;;;;;;;;;;;;28.29;56.82;100811.77;672160;1274;123142;-77
2023/09/09 16:25:20;;;;;;;;;;;;;;;27.81;58.09;100812.04;667663;1275;126687;-76
2023/09/09 16:40:23;;;;;;;;;;;;;;;27.52;59.14;100816.84;664594;1275;124535;-75
2023/09/09 16:55:29;;;;;;;;;;;;;;;26.82;60.80;100819.24;663025;1275;125039;-78
2023/09/09 17:10:36;;;;;;;;;;;;;;;26.10;61.69;100824.95;667221;1272;124893;-79
2023/09/09 17:25:40;;;;;;;;;;;;;;;25.41;63.83;100826.41;667076;1276;124470;-79
2023/09/09 17:40:43;;;;;;;;;;;;;;;24.67;64.62;100829.69;665334;1277;124629;-79
2023/09/09 17:55:47;;;;;;;;;;;;;;;24.02;66.59;100840.95;668230;1273;124841;-78
2023/09/09 18:10:51;;;;;;;;;;;;;;;23.56;67.89;100849.33;666724;1276;125069;-78
2023/09/09 18:25:54;;;;;;;;;;;;;;;23.16;70.52;100849.79;666937;1276;125050;-77
2023/09/09 18:40:58;;;;;;;;;;;;;;;22.82;72.27;100852.65;668088;1277;124998;-79
2023/09/09 18:56:04;;;;;;;;;;;;;;;22.55;74.43;100853.48;669294;1275;125805;-78
2023/09/09 19:11:07;;;;;;;;;;;;;;;22.19;75.91;100848.66;671296;1275;126045;-78
2023/09/09 19:26:10;;;;;;;;;;;;;;;21.81;76.52;100852.23;668871;1287;125955;-79
2023/09/09 19:41:14;;;;;;;;;;;;;;;21.56;78.35;100856.89;669016;1277;125751;-78
2023/09/09 19:56:17;;;;;;;;;;;;;;;21.28;79.14;100855.52;670240;1282;126943;-78
2023/09/09 20:11:20;;;;;;;;;;;;;;;20.97;80.54;100856.73;670491;1276;127870;-78
2023/09/09 20:26:23;;;;;;;;;;;;;;;20.74;80.59;100850.63;669342;1285;126322;-78
2023/09/09 20:41:27;;;;;;;;;;;;;;;20.69;80.81;100851.98;670890;1288;126091;-78
2023/09/09 20:56:30;;;;;;;;;;;;;;;20.56;82.24;100848.72;674901;1261;125702;-79
2023/09/09 21:11:33;;;;;;;;;;;;;;;20.38;82.74;100841.59;676596;1260;125507;-79
2023/09/09 21:26:36;;;;;;;;;;;;;;;20.14;83.32;100835.59;679456;1263;125624;-79
2023/09/09 21:41:39;;;;;;;;;;;;;;;20.13;84.56;100838.01;674733;1263;125632;-79
2023/09/09 21:56:43;;;;;;;;;;;;;;;19.91;84.68;100833.19;675118;1263;126478;-79
2023/09/09 22:11:46;;;;;;;;;;;;;;;19.57;85.63;100830.59;673356;1263;126750;-79
2023/09/09 22:26:49;;;;;;;;;;;;;;;19.30;85.68;100832.16;674299;1263;125930;-79
2023/09/09 22:41:52;;;;;;;;;;;;;;;19.18;85.84;100823.27;673967;1261;126711;-78
2023/09/09 22:56:57;;;;;;;;;;;;;;;18.97;86.68;100816.08;670638;1264;126036;-78
2023/09/09 23:12:00;;;;;;;;;;;;;;;18.67;87.82;100818.30;669420;1260;125856;-78
2023/09/09 23:27:03;;;;;;;;;;;;;;;18.46;88.74;100815.14;669318;1272;126997;-79
2023/09/09 23:42:07;;;;;;;;;;;;;;;18.34;88.40;100804.67;673417;1264;127169;-78
2023/09/09 23:57:16;;;;;;;;;;;;;;;18.10;89.04;100798.67;673621;1259;125829;-79
